sensor_id;sensor_type;location;lat;lon;timestamp;P1;durP1;ratioP1;P2;durP2;ratioP2
35646;SDS011;28680;45.642;13.756;2022-10-23T00:02:06;17.70;;;8.38;;
35646;SDS011;28680;45.642;13.756;2022-10-23T00:04:31;19.42;;;8.35;;
35646;SDS011;28680;45.642;13.756;2022-10-23T00:06:58;16.40;;;8.48;;
35646;SDS011;28680;45.642;13.756;2022-10-23T00:09:24;20.70;;;9.30;;
35646;SDS011;28680;45.642;13.756;2022-10-23T00:11:50;14.77;;;7.75;;
35646;SDS011;28680;45.642;13.756;2022-10-23T00:14:20;17.33;;;8.02;;
35646;SDS011;28680;45.642;13.756;2022-10-23T00:16:47;19.33;;;8.73;;
35646;SDS011;28680;45.642;13.756;2022-10-23T00:19:14;20.23;;;8.68;;
35646;SDS011;28680;45.642;13.756;2022-10-23T00:21:41;17.42;;;9.02;;
35646;SDS011;28680;45.642;13.756;2022-10-23T00:24:08;17.70;;;8.85;;
35646;SDS011;28680;45.642;13.756;2022-10-23T00:26:34;14.98;;;8.50;;
35646;SDS011;28680;45.642;13.756;2022-10-23T00:29:02;15.05;;;9.00;;
35646;SDS011;28680;45.642;13.756;2022-10-23T00:31:37;15.23;;;8.25;;
35646;SDS011;28680;45.642;13.756;2022-10-23T00:36:53;19.20;;;8.23;;
35646;SDS011;28680;45.642;13.756;2022-10-23T00:39:19;14.45;;;8.38;;
35646;SDS011;28680;45.642;13.756;2022-10-23T00:41:45;14.75;;;7.75;;
35646;SDS011;28680;45.642;13.756;2022-10-23T00:46:42;11.85;;;7.90;;
35646;SDS011;28680;45.642;13.756;2022-10-23T00:49:10;19.77;;;8.85;;
35646;SDS011;28680;45.642;13.756;2022-10-23T00:51:38;17.65;;;7.93;;
35646;SDS011;28680;45.642;13.756;2022-10-23T00:54:13;16.83;;;7.93;;
35646;SDS011;28680;45.642;13.756;2022-10-23T00:56:43;16.50;;;7.43;;
35646;SDS011;28680;45.642;13.756;2022-10-23T00:59:10;13.70;;;8.27;;
35646;SDS011;28680;45.642;13.756;2022-10-23T01:01:36;17.48;;;8.82;;
35646;SDS011;28680;45.642;13.756;2022-10-23T01:04:03;12.65;;;8.65;;
35646;SDS011;28680;45.642;13.756;2022-10-23T01:06:34;18.25;;;8.82;;
35646;SDS011;28680;45.642;13.756;2022-10-23T01:15:16;15.40;;;8.60;;
35646;SDS011;28680;45.642;13.756;2022-10-23T01:17:58;15.30;;;8.35;;
35646;SDS011;28680;45.642;13.756;2022-10-23T01:20:40;17.05;;;9.48;;
35646;SDS011;28680;45.642;13.756;2022-10-23T01:23:23;15.85;;;8.55;;
35646;SDS011;28680;45.642;13.756;2022-10-23T01:31:52;14.27;;;9.57;;
35646;SDS011;28680;45.642;13.756;2022-10-23T01:34:49;16.98;;;9.25;;
35646;SDS011;28680;45.642;13.756;2022-10-23T01:37:31;16.38;;;9.23;;
35646;SDS011;28680;45.642;13.756;2022-10-23T01:40:08;19.65;;;9.68;;
35646;SDS011;28680;45.642;13.756;2022-10-23T01:43:00;18.02;;;8.50;;
35646;SDS011;28680;45.642;13.756;2022-10-23T01:45:42;15.23;;;9.38;;
35646;SDS011;28680;45.642;13.756;2022-10-23T01:48:21;15.90;;;8.77;;
35646;SDS011;28680;45.642;13.756;2022-10-23T01:50:52;16.58;;;9.35;;
35646;SDS011;28680;45.642;13.756;2022-10-23T01:53:22;16.52;;;8.52;;
35646;SDS011;28680;45.642;13.756;2022-10-23T01:55:54;16.33;;;8.68;;
35646;SDS011;28680;45.642;13.756;2022-10-23T01:58:25;12.45;;;8.18;;
35646;SDS011;28680;45.642;13.756;2022-10-23T02:00:55;20.63;;;9.23;;
35646;SDS011;28680;45.642;13.756;2022-10-23T02:03:25;21.23;;;8.55;;
35646;SDS011;28680;45.642;13.756;2022-10-23T02:05:55;22.15;;;9.25;;
35646;SDS011;28680;45.642;13.756;2022-10-23T02:08:21;18.20;;;9.18;;
35646;SDS011;28680;45.642;13.756;2022-10-23T02:16:44;12.88;;;8.40;;
35646;SDS011;28680;45.642;13.756;2022-10-23T02:21:57;16.55;;;8.80;;
35646;SDS011;28680;45.642;13.756;2022-10-23T02:27:37;12.73;;;9.13;;
35646;SDS011;28680;45.642;13.756;2022-10-23T02:30:12;16.00;;;9.40;;
35646;SDS011;28680;45.642;13.756;2022-10-23T02:32:52;15.18;;;9.20;;
35646;SDS011;28680;45.642;13.756;2022-10-23T02:35:21;20.45;;;8.95;;
35646;SDS011;28680;45.642;13.756;2022-10-23T02:37:55;20.15;;;9.43;;
35646;SDS011;28680;45.642;13.756;2022-10-23T02:40:25;21.60;;;10.02;;
35646;SDS011;28680;45.642;13.756;2022-10-23T02:43:42;15.55;;;9.55;;
35646;SDS011;28680;45.642;13.756;2022-10-23T02:46:08;18.70;;;10.18;;
35646;SDS011;28680;45.642;13.756;2022-10-23T02:55:07;20.17;;;10.35;;
35646;SDS011;28680;45.642;13.756;2022-10-23T03:00:51;20.23;;;10.52;;
35646;SDS011;28680;45.642;13.756;2022-10-23T03:03:34;21.65;;;10.95;;
35646;SDS011;28680;45.642;13.756;2022-10-23T03:06:06;21.20;;;10.35;;
35646;SDS011;28680;45.642;13.756;2022-10-23T03:08:49;19.20;;;11.00;;
35646;SDS011;28680;45.642;13.756;2022-10-23T03:11:18;18.40;;;10.45;;
35646;SDS011;28680;45.642;13.756;2022-10-23T03:13:44;21.30;;;11.30;;
35646;SDS011;28680;45.642;13.756;2022-10-23T03:16:10;21.27;;;10.93;;
35646;SDS011;28680;45.642;13.756;2022-10-23T03:18:38;23.98;;;11.27;;
35646;SDS011;28680;45.642;13.756;2022-10-23T03:21:05;20.13;;;10.45;;
35646;SDS011;28680;45.642;13.756;2022-10-23T03:23:31;21.38;;;12.15;;
35646;SDS011;28680;45.642;13.756;2022-10-23T03:25:57;21.63;;;11.27;;
35646;SDS011;28680;45.642;13.756;2022-10-23T03:28:23;25.67;;;12.10;;
35646;SDS011;28680;45.642;13.756;2022-10-23T03:30:49;27.35;;;12.32;;
35646;SDS011;28680;45.642;13.756;2022-10-23T03:33:15;29.13;;;12.30;;
35646;SDS011;28680;45.642;13.756;2022-10-23T03:35:41;22.13;;;11.15;;
35646;SDS011;28680;45.642;13.756;2022-10-23T03:38:09;27.85;;;11.77;;
35646;SDS011;28680;45.642;13.756;2022-10-23T03:40:34;29.02;;;12.55;;
35646;SDS011;28680;45.642;13.756;2022-10-23T03:43:00;21.17;;;11.50;;
35646;SDS011;28680;45.642;13.756;2022-10-23T03:45:26;24.88;;;11.65;;
35646;SDS011;28680;45.642;13.756;2022-10-23T03:47:52;26.65;;;11.63;;
35646;SDS011;28680;45.642;13.756;2022-10-23T03:50:18;23.60;;;11.77;;
35646;SDS011;28680;45.642;13.756;2022-10-23T03:52:44;28.33;;;12.68;;
35646;SDS011;28680;45.642;13.756;2022-10-23T03:55:11;21.42;;;11.85;;
35646;SDS011;28680;45.642;13.756;2022-10-23T03:57:38;27.73;;;12.18;;
35646;SDS011;28680;45.642;13.756;2022-10-23T04:00:04;22.15;;;11.55;;
35646;SDS011;28680;45.642;13.756;2022-10-23T04:02:31;23.25;;;13.07;;
35646;SDS011;28680;45.642;13.756;2022-10-23T04:04:57;26.50;;;12.55;;
35646;SDS011;28680;45.642;13.756;2022-10-23T04:07:23;21.55;;;11.65;;
35646;SDS011;28680;45.642;13.756;2022-10-23T04:09:49;27.65;;;12.95;;
35646;SDS011;28680;45.642;13.756;2022-10-23T04:12:15;26.23;;;12.63;;
35646;SDS011;28680;45.642;13.756;2022-10-23T04:14:41;32.58;;;12.38;;
35646;SDS011;28680;45.642;13.756;2022-10-23T04:17:07;27.25;;;12.73;;
35646;SDS011;28680;45.642;13.756;2022-10-23T04:19:33;24.05;;;12.20;;
35646;SDS011;28680;45.642;13.756;2022-10-23T04:21:59;26.20;;;12.18;;
35646;SDS011;28680;45.642;13.756;2022-10-23T04:24:25;25.92;;;12.45;;
35646;SDS011;28680;45.642;13.756;2022-10-23T04:26:51;32.15;;;13.60;;
35646;SDS011;28680;45.642;13.756;2022-10-23T04:29:17;27.35;;;12.52;;
35646;SDS011;28680;45.642;13.756;2022-10-23T04:31:46;22.38;;;12.10;;
35646;SDS011;28680;45.642;13.756;2022-10-23T04:34:12;25.75;;;12.25;;
35646;SDS011;28680;45.642;13.756;2022-10-23T04:36:38;28.63;;;12.93;;
35646;SDS011;28680;45.642;13.756;2022-10-23T04:39:04;26.60;;;12.70;;
35646;SDS011;28680;45.642;13.756;2022-10-23T04:41:30;31.58;;;13.32;;
35646;SDS011;28680;45.642;13.756;2022-10-23T04:43:56;23.23;;;12.68;;
35646;SDS011;28680;45.642;13.756;2022-10-23T04:46:22;21.50;;;12.02;;
35646;SDS011;28680;45.642;13.756;2022-10-23T04:48:48;24.98;;;12.38;;
35646;SDS011;28680;45.642;13.756;2022-10-23T04:51:14;18.23;;;12.25;;
35646;SDS011;28680;45.642;13.756;2022-10-23T04:53:44;26.00;;;12.57;;
35646;SDS011;28680;45.642;13.756;2022-10-23T04:56:12;20.98;;;12.85;;
35646;SDS011;28680;45.642;13.756;2022-10-23T04:58:39;23.73;;;12.82;;
35646;SDS011;28680;45.642;13.756;2022-10-23T05:01:06;25.58;;;12.98;;
35646;SDS011;28680;45.642;13.756;2022-10-23T05:03:34;22.17;;;12.00;;
35646;SDS011;28680;45.642;13.756;2022-10-23T05:06:02;26.80;;;13.30;;
35646;SDS011;28680;45.642;13.756;2022-10-23T05:08:29;28.75;;;13.95;;
35646;SDS011;28680;45.642;13.756;2022-10-23T05:10:56;28.17;;;13.40;;
35646;SDS011;28680;45.642;13.756;2022-10-23T05:13:21;25.50;;;12.55;;
35646;SDS011;28680;45.642;13.756;2022-10-23T05:15:48;25.00;;;12.45;;
35646;SDS011;28680;45.642;13.756;2022-10-23T05:18:17;24.65;;;13.15;;
35646;SDS011;28680;45.642;13.756;2022-10-23T05:21:14;26.63;;;12.85;;
35646;SDS011;28680;45.642;13.756;2022-10-23T05:23:47;21.58;;;13.13;;
35646;SDS011;28680;45.642;13.756;2022-10-23T05:26:13;27.63;;;13.73;;
35646;SDS011;28680;45.642;13.756;2022-10-23T05:28:39;27.02;;;12.50;;
35646;SDS011;28680;45.642;13.756;2022-10-23T05:31:05;27.98;;;14.05;;
35646;SDS011;28680;45.642;13.756;2022-10-23T05:33:31;25.42;;;13.50;;
35646;SDS011;28680;45.642;13.756;2022-10-23T05:35:58;24.60;;;14.35;;
35646;SDS011;28680;45.642;13.756;2022-10-23T05:38:25;25.55;;;14.50;;
35646;SDS011;28680;45.642;13.756;2022-10-23T05:40:56;27.67;;;14.95;;
35646;SDS011;28680;45.642;13.756;2022-10-23T05:43:22;28.67;;;14.07;;
35646;SDS011;28680;45.642;13.756;2022-10-23T05:45:49;27.88;;;14.00;;
35646;SDS011;28680;45.642;13.756;2022-10-23T05:48:15;30.75;;;14.95;;
35646;SDS011;28680;45.642;13.756;2022-10-23T05:50:41;27.00;;;13.50;;
35646;SDS011;28680;45.642;13.756;2022-10-23T05:53:08;19.75;;;13.73;;
35646;SDS011;28680;45.642;13.756;2022-10-23T05:55:35;31.85;;;13.65;;
35646;SDS011;28680;45.642;13.756;2022-10-23T05:58:02;29.75;;;13.95;;
35646;SDS011;28680;45.642;13.756;2022-10-23T06:00:28;28.77;;;13.95;;
35646;SDS011;28680;45.642;13.756;2022-10-23T06:02:54;23.95;;;13.57;;
35646;SDS011;28680;45.642;13.756;2022-10-23T06:05:23;32.70;;;15.63;;
35646;SDS011;28680;45.642;13.756;2022-10-23T06:07:49;29.40;;;15.00;;
35646;SDS011;28680;45.642;13.756;2022-10-23T06:10:15;34.95;;;13.88;;
35646;SDS011;28680;45.642;13.756;2022-10-23T06:12:41;25.95;;;15.13;;
35646;SDS011;28680;45.642;13.756;2022-10-23T06:15:08;29.35;;;14.23;;
35646;SDS011;28680;45.642;13.756;2022-10-23T06:17:34;22.20;;;12.88;;
35646;SDS011;28680;45.642;13.756;2022-10-23T06:20:00;34.95;;;13.90;;
35646;SDS011;28680;45.642;13.756;2022-10-23T06:22:29;30.05;;;13.90;;
35646;SDS011;28680;45.642;13.756;2022-10-23T06:24:55;30.20;;;13.95;;
35646;SDS011;28680;45.642;13.756;2022-10-23T06:27:21;28.48;;;14.25;;
35646;SDS011;28680;45.642;13.756;2022-10-23T06:29:47;27.27;;;13.48;;
35646;SDS011;28680;45.642;13.756;2022-10-23T06:32:13;29.33;;;14.30;;
35646;SDS011;28680;45.642;13.756;2022-10-23T06:34:40;26.48;;;13.27;;
35646;SDS011;28680;45.642;13.756;2022-10-23T06:37:06;26.70;;;14.13;;
35646;SDS011;28680;45.642;13.756;2022-10-23T06:39:32;35.20;;;14.05;;
35646;SDS011;28680;45.642;13.756;2022-10-23T06:42:01;31.73;;;14.27;;
35646;SDS011;28680;45.642;13.756;2022-10-23T06:44:27;32.55;;;14.15;;
35646;SDS011;28680;45.642;13.756;2022-10-23T06:46:53;31.98;;;13.20;;
35646;SDS011;28680;45.642;13.756;2022-10-23T06:49:19;28.73;;;12.25;;
35646;SDS011;28680;45.642;13.756;2022-10-23T06:51:45;30.63;;;13.68;;
35646;SDS011;28680;45.642;13.756;2022-10-23T06:54:11;30.92;;;13.20;;
35646;SDS011;28680;45.642;13.756;2022-10-23T06:56:39;31.63;;;12.80;;
35646;SDS011;28680;45.642;13.756;2022-10-23T06:59:04;25.60;;;13.82;;
35646;SDS011;28680;45.642;13.756;2022-10-23T07:01:31;44.08;;;14.15;;
35646;SDS011;28680;45.642;13.756;2022-10-23T07:03:58;28.00;;;13.07;;
35646;SDS011;28680;45.642;13.756;2022-10-23T07:06:24;27.02;;;12.77;;
35646;SDS011;28680;45.642;13.756;2022-10-23T07:08:50;24.85;;;12.95;;
35646;SDS011;28680;45.642;13.756;2022-10-23T07:11:16;22.17;;;12.80;;
35646;SDS011;28680;45.642;13.756;2022-10-23T07:13:45;27.67;;;12.98;;
35646;SDS011;28680;45.642;13.756;2022-10-23T07:16:15;31.45;;;12.93;;
35646;SDS011;28680;45.642;13.756;2022-10-23T07:18:44;27.90;;;13.30;;
35646;SDS011;28680;45.642;13.756;2022-10-23T07:21:12;30.50;;;14.13;;
35646;SDS011;28680;45.642;13.756;2022-10-23T07:23:38;31.00;;;13.52;;
35646;SDS011;28680;45.642;13.756;2022-10-23T07:26:13;29.38;;;12.75;;
35646;SDS011;28680;45.642;13.756;2022-10-23T07:28:41;25.48;;;13.20;;
35646;SDS011;28680;45.642;13.756;2022-10-23T07:31:09;26.98;;;13.13;;
35646;SDS011;28680;45.642;13.756;2022-10-23T07:33:35;27.55;;;13.32;;
35646;SDS011;28680;45.642;13.756;2022-10-23T07:36:05;21.92;;;11.40;;
35646;SDS011;28680;45.642;13.756;2022-10-23T07:38:32;25.23;;;11.93;;
35646;SDS011;28680;45.642;13.756;2022-10-23T07:40:59;28.92;;;12.38;;
35646;SDS011;28680;45.642;13.756;2022-10-23T07:43:25;28.90;;;12.85;;
35646;SDS011;28680;45.642;13.756;2022-10-23T07:45:52;23.35;;;11.38;;
35646;SDS011;28680;45.642;13.756;2022-10-23T07:48:21;26.88;;;11.60;;
35646;SDS011;28680;45.642;13.756;2022-10-23T07:50:51;23.85;;;11.95;;
35646;SDS011;28680;45.642;13.756;2022-10-23T07:53:20;21.33;;;11.50;;
35646;SDS011;28680;45.642;13.756;2022-10-23T07:55:58;30.48;;;12.38;;
35646;SDS011;28680;45.642;13.756;2022-10-23T07:58:27;24.42;;;11.48;;
35646;SDS011;28680;45.642;13.756;2022-10-23T08:00:56;26.83;;;11.90;;
35646;SDS011;28680;45.642;13.756;2022-10-23T08:03:29;28.00;;;11.10;;
35646;SDS011;28680;45.642;13.756;2022-10-23T08:05:59;23.05;;;10.93;;
35646;SDS011;28680;45.642;13.756;2022-10-23T08:08:25;23.52;;;11.23;;
35646;SDS011;28680;45.642;13.756;2022-10-23T08:10:52;23.08;;;10.88;;
35646;SDS011;28680;45.642;13.756;2022-10-23T08:16:38;20.98;;;11.05;;
35646;SDS011;28680;45.642;13.756;2022-10-23T08:19:04;24.75;;;10.90;;
35646;SDS011;28680;45.642;13.756;2022-10-23T08:21:32;25.13;;;11.77;;
35646;SDS011;28680;45.642;13.756;2022-10-23T08:23:58;25.80;;;10.48;;
35646;SDS011;28680;45.642;13.756;2022-10-23T08:26:25;24.25;;;11.30;;
35646;SDS011;28680;45.642;13.756;2022-10-23T08:31:32;21.10;;;9.77;;
35646;SDS011;28680;45.642;13.756;2022-10-23T08:37:02;24.15;;;10.50;;
35646;SDS011;28680;45.642;13.756;2022-10-23T08:39:28;22.60;;;10.57;;
35646;SDS011;28680;45.642;13.756;2022-10-23T08:41:53;23.35;;;11.43;;
35646;SDS011;28680;45.642;13.756;2022-10-23T08:46:52;22.73;;;9.57;;
35646;SDS011;28680;45.642;13.756;2022-10-23T08:49:41;22.67;;;10.50;;
35646;SDS011;28680;45.642;13.756;2022-10-23T08:52:38;22.95;;;10.68;;
35646;SDS011;28680;45.642;13.756;2022-10-23T08:55:41;28.48;;;10.45;;
35646;SDS011;28680;45.642;13.756;2022-10-23T08:58:37;23.13;;;9.98;;
35646;SDS011;28680;45.642;13.756;2022-10-23T09:01:20;30.10;;;10.88;;
35646;SDS011;28680;45.642;13.756;2022-10-23T09:04:11;20.80;;;9.13;;
35646;SDS011;28680;45.642;13.756;2022-10-23T09:09:55;22.10;;;10.25;;
35646;SDS011;28680;45.642;13.756;2022-10-23T09:12:45;20.75;;;8.85;;
35646;SDS011;28680;45.642;13.756;2022-10-23T09:15:13;29.58;;;9.95;;
35646;SDS011;28680;45.642;13.756;2022-10-23T09:18:06;25.67;;;8.68;;
35646;SDS011;28680;45.642;13.756;2022-10-23T09:20:39;19.23;;;9.07;;
35646;SDS011;28680;45.642;13.756;2022-10-23T09:23:13;19.45;;;9.52;;
35646;SDS011;28680;45.642;13.756;2022-10-23T09:25:43;22.27;;;9.63;;
35646;SDS011;28680;45.642;13.756;2022-10-23T09:28:16;16.25;;;8.38;;
35646;SDS011;28680;45.642;13.756;2022-10-23T09:30:48;19.48;;;8.50;;
35646;SDS011;28680;45.642;13.756;2022-10-23T09:33:20;17.90;;;9.50;;
35646;SDS011;28680;45.642;13.756;2022-10-23T09:35:50;21.33;;;9.93;;
35646;SDS011;28680;45.642;13.756;2022-10-23T09:38:27;20.58;;;9.57;;
35646;SDS011;28680;45.642;13.756;2022-10-23T09:41:29;23.23;;;9.60;;
35646;SDS011;28680;45.642;13.756;2022-10-23T09:47:08;22.80;;;8.75;;
35646;SDS011;28680;45.642;13.756;2022-10-23T09:49:47;18.35;;;9.48;;
35646;SDS011;28680;45.642;13.756;2022-10-23T09:52:27;29.02;;;11.75;;
35646;SDS011;28680;45.642;13.756;2022-10-23T09:55:20;23.92;;;10.23;;
35646;SDS011;28680;45.642;13.756;2022-10-23T09:57:55;21.55;;;9.95;;
35646;SDS011;28680;45.642;13.756;2022-10-23T10:00:24;23.45;;;10.15;;
35646;SDS011;28680;45.642;13.756;2022-10-23T10:03:02;22.33;;;9.30;;
35646;SDS011;28680;45.642;13.756;2022-10-23T10:05:35;19.67;;;9.85;;
35646;SDS011;28680;45.642;13.756;2022-10-23T10:10:51;19.73;;;9.30;;
35646;SDS011;28680;45.642;13.756;2022-10-23T10:15:58;26.00;;;10.30;;
35646;SDS011;28680;45.642;13.756;2022-10-23T10:18:50;22.77;;;9.52;;
35646;SDS011;28680;45.642;13.756;2022-10-23T10:21:27;22.48;;;10.57;;
35646;SDS011;28680;45.642;13.756;2022-10-23T10:24:52;22.00;;;10.10;;
35646;SDS011;28680;45.642;13.756;2022-10-23T10:30:59;25.48;;;9.52;;
35646;SDS011;28680;45.642;13.756;2022-10-23T10:36:54;19.33;;;8.70;;
35646;SDS011;28680;45.642;13.756;2022-10-23T10:45:05;24.38;;;10.10;;
35646;SDS011;28680;45.642;13.756;2022-10-23T10:53:27;22.80;;;9.02;;
35646;SDS011;28680;45.642;13.756;2022-10-23T10:56:14;18.50;;;8.70;;
35646;SDS011;28680;45.642;13.756;2022-10-23T10:58:52;25.17;;;9.52;;
35646;SDS011;28680;45.642;13.756;2022-10-23T11:01:33;22.48;;;9.65;;
35646;SDS011;28680;45.642;13.756;2022-10-23T11:04:10;23.45;;;9.63;;
35646;SDS011;28680;45.642;13.756;2022-10-23T11:06:51;19.02;;;8.55;;
35646;SDS011;28680;45.642;13.756;2022-10-23T11:09:24;24.70;;;9.88;;
35646;SDS011;28680;45.642;13.756;2022-10-23T11:11:53;20.45;;;9.50;;
35646;SDS011;28680;45.642;13.756;2022-10-23T11:14:20;22.15;;;10.35;;
35646;SDS011;28680;45.642;13.756;2022-10-23T11:16:50;26.30;;;9.10;;
35646;SDS011;28680;45.642;13.756;2022-10-23T11:19:27;28.40;;;9.32;;
35646;SDS011;28680;45.642;13.756;2022-10-23T11:22:03;19.63;;;8.98;;
35646;SDS011;28680;45.642;13.756;2022-10-23T11:30:24;20.90;;;8.70;;
35646;SDS011;28680;45.642;13.756;2022-10-23T11:36:18;20.40;;;8.15;;
35646;SDS011;28680;45.642;13.756;2022-10-23T11:39:27;19.77;;;8.90;;
35646;SDS011;28680;45.642;13.756;2022-10-23T11:41:55;23.75;;;9.32;;
35646;SDS011;28680;45.642;13.756;2022-10-23T11:44:44;15.68;;;7.75;;
35646;SDS011;28680;45.642;13.756;2022-10-23T11:47:33;15.98;;;8.32;;
35646;SDS011;28680;45.642;13.756;2022-10-23T11:52:31;14.93;;;8.13;;
35646;SDS011;28680;45.642;13.756;2022-10-23T11:55:53;18.45;;;8.32;;
35646;SDS011;28680;45.642;13.756;2022-10-23T12:01:20;19.17;;;9.18;;
35646;SDS011;28680;45.642;13.756;2022-10-23T12:14:37;21.42;;;8.48;;
35646;SDS011;28680;45.642;13.756;2022-10-23T12:20:03;20.27;;;8.38;;
35646;SDS011;28680;45.642;13.756;2022-10-23T12:25:36;19.35;;;8.18;;
35646;SDS011;28680;45.642;13.756;2022-10-23T12:34:26;16.20;;;7.32;;
35646;SDS011;28680;45.642;13.756;2022-10-23T12:40:43;14.40;;;7.60;;
35646;SDS011;28680;45.642;13.756;2022-10-23T12:43:23;25.70;;;7.78;;
35646;SDS011;28680;45.642;13.756;2022-10-23T12:45:58;16.85;;;8.60;;
35646;SDS011;28680;45.642;13.756;2022-10-23T12:48:46;13.10;;;7.28;;
35646;SDS011;28680;45.642;13.756;2022-10-23T12:51:28;19.92;;;7.93;;
35646;SDS011;28680;45.642;13.756;2022-10-23T12:53:59;16.10;;;7.47;;
35646;SDS011;28680;45.642;13.756;2022-10-23T12:56:32;13.73;;;7.85;;
35646;SDS011;28680;45.642;13.756;2022-10-23T12:59:00;15.73;;;7.97;;
35646;SDS011;28680;45.642;13.756;2022-10-23T13:01:27;15.25;;;8.30;;
35646;SDS011;28680;45.642;13.756;2022-10-23T13:06:52;14.50;;;8.02;;
35646;SDS011;28680;45.642;13.756;2022-10-23T13:09:30;13.75;;;7.18;;
35646;SDS011;28680;45.642;13.756;2022-10-23T13:12:04;19.90;;;8.27;;
35646;SDS011;28680;45.642;13.756;2022-10-23T13:14:36;12.90;;;7.35;;
35646;SDS011;28680;45.642;13.756;2022-10-23T13:19:35;18.60;;;8.23;;
35646;SDS011;28680;45.642;13.756;2022-10-23T13:22:03;19.55;;;8.65;;
35646;SDS011;28680;45.642;13.756;2022-10-23T13:24:45;16.52;;;8.15;;
35646;SDS011;28680;45.642;13.756;2022-10-23T13:27:45;15.43;;;8.02;;
35646;SDS011;28680;45.642;13.756;2022-10-23T13:30:04;16.45;;;7.70;;
35646;SDS011;28680;45.642;13.756;2022-10-23T13:33:14;14.32;;;7.53;;
35646;SDS011;28680;45.642;13.756;2022-10-23T13:35:54;18.92;;;8.00;;
35646;SDS011;28680;45.642;13.756;2022-10-23T13:38:34;15.52;;;8.13;;
35646;SDS011;28680;45.642;13.756;2022-10-23T13:41:03;14.50;;;8.30;;
35646;SDS011;28680;45.642;13.756;2022-10-23T13:43:30;16.02;;;7.57;;
35646;SDS011;28680;45.642;13.756;2022-10-23T13:45:58;15.50;;;7.82;;
35646;SDS011;28680;45.642;13.756;2022-10-23T13:48:25;15.93;;;8.43;;
35646;SDS011;28680;45.642;13.756;2022-10-23T13:50:52;12.68;;;7.70;;
35646;SDS011;28680;45.642;13.756;2022-10-23T13:53:24;16.00;;;8.10;;
35646;SDS011;28680;45.642;13.756;2022-10-23T13:55:49;15.40;;;7.63;;
35646;SDS011;28680;45.642;13.756;2022-10-23T13:58:25;16.38;;;7.93;;
35646;SDS011;28680;45.642;13.756;2022-10-23T14:00:52;15.82;;;7.50;;
35646;SDS011;28680;45.642;13.756;2022-10-23T14:03:18;14.77;;;7.80;;
35646;SDS011;28680;45.642;13.756;2022-10-23T14:05:48;16.50;;;8.02;;
35646;SDS011;28680;45.642;13.756;2022-10-23T14:08:26;15.50;;;7.80;;
35646;SDS011;28680;45.642;13.756;2022-10-23T14:10:58;14.20;;;7.30;;
35646;SDS011;28680;45.642;13.756;2022-10-23T14:13:45;15.77;;;7.90;;
35646;SDS011;28680;45.642;13.756;2022-10-23T14:16:13;15.02;;;7.63;;
35646;SDS011;28680;45.642;13.756;2022-10-23T14:18:46;17.45;;;8.15;;
35646;SDS011;28680;45.642;13.756;2022-10-23T14:21:13;12.63;;;6.97;;
35646;SDS011;28680;45.642;13.756;2022-10-23T14:23:52;14.25;;;7.47;;
35646;SDS011;28680;45.642;13.756;2022-10-23T14:26:20;19.00;;;8.57;;
35646;SDS011;28680;45.642;13.756;2022-10-23T14:28:52;15.57;;;7.72;;
35646;SDS011;28680;45.642;13.756;2022-10-23T14:31:20;25.48;;;8.43;;
35646;SDS011;28680;45.642;13.756;2022-10-23T14:33:50;14.88;;;7.60;;
35646;SDS011;28680;45.642;13.756;2022-10-23T14:36:22;15.98;;;8.00;;
35646;SDS011;28680;45.642;13.756;2022-10-23T14:38:48;13.63;;;7.90;;
35646;SDS011;28680;45.642;13.756;2022-10-23T14:41:18;14.38;;;7.45;;
35646;SDS011;28680;45.642;13.756;2022-10-23T14:43:44;18.35;;;8.10;;
35646;SDS011;28680;45.642;13.756;2022-10-23T14:46:14;14.13;;;7.82;;
35646;SDS011;28680;45.642;13.756;2022-10-23T14:48:43;12.82;;;7.40;;
35646;SDS011;28680;45.642;13.756;2022-10-23T14:51:17;16.88;;;8.20;;
35646;SDS011;28680;45.642;13.756;2022-10-23T14:53:55;14.48;;;7.30;;
35646;SDS011;28680;45.642;13.756;2022-10-23T14:56:25;16.08;;;7.70;;
35646;SDS011;28680;45.642;13.756;2022-10-23T14:58:56;15.80;;;8.18;;
35646;SDS011;28680;45.642;13.756;2022-10-23T15:01:27;16.45;;;8.30;;
35646;SDS011;28680;45.642;13.756;2022-10-23T15:03:54;16.23;;;8.23;;
35646;SDS011;28680;45.642;13.756;2022-10-23T15:06:21;13.40;;;7.60;;
35646;SDS011;28680;45.642;13.756;2022-10-23T15:08:48;12.80;;;6.72;;
35646;SDS011;28680;45.642;13.756;2022-10-23T15:11:15;13.50;;;7.40;;
35646;SDS011;28680;45.642;13.756;2022-10-23T15:13:41;17.30;;;8.25;;
35646;SDS011;28680;45.642;13.756;2022-10-23T15:16:08;14.82;;;9.07;;
35646;SDS011;28680;45.642;13.756;2022-10-23T15:18:35;17.83;;;8.63;;
35646;SDS011;28680;45.642;13.756;2022-10-23T15:21:02;13.65;;;7.20;;
35646;SDS011;28680;45.642;13.756;2022-10-23T15:23:33;15.60;;;8.13;;
35646;SDS011;28680;45.642;13.756;2022-10-23T15:26:03;16.05;;;7.93;;
35646;SDS011;28680;45.642;13.756;2022-10-23T15:28:31;10.35;;;7.22;;
35646;SDS011;28680;45.642;13.756;2022-10-23T15:30:57;12.95;;;7.32;;
35646;SDS011;28680;45.642;13.756;2022-10-23T15:33:24;16.75;;;8.80;;
35646;SDS011;28680;45.642;13.756;2022-10-23T15:35:50;19.70;;;10.40;;
35646;SDS011;28680;45.642;13.756;2022-10-23T15:38:17;15.38;;;8.18;;
35646;SDS011;28680;45.642;13.756;2022-10-23T15:40:44;13.65;;;7.25;;
35646;SDS011;28680;45.642;13.756;2022-10-23T15:43:11;17.48;;;8.75;;
35646;SDS011;28680;45.642;13.756;2022-10-23T15:45:38;13.85;;;7.22;;
35646;SDS011;28680;45.642;13.756;2022-10-23T15:48:05;13.38;;;8.43;;
35646;SDS011;28680;45.642;13.756;2022-10-23T15:50:31;16.25;;;8.93;;
35646;SDS011;28680;45.642;13.756;2022-10-23T15:52:58;17.27;;;8.88;;
35646;SDS011;28680;45.642;13.756;2022-10-23T15:55:23;28.52;;;9.45;;
35646;SDS011;28680;45.642;13.756;2022-10-23T15:57:49;20.92;;;9.57;;
35646;SDS011;28680;45.642;13.756;2022-10-23T16:00:15;21.85;;;9.40;;
35646;SDS011;28680;45.642;13.756;2022-10-23T16:02:42;20.60;;;9.40;;
35646;SDS011;28680;45.642;13.756;2022-10-23T16:05:08;19.88;;;10.30;;
35646;SDS011;28680;45.642;13.756;2022-10-23T16:07:34;21.08;;;10.25;;
35646;SDS011;28680;45.642;13.756;2022-10-23T16:10:00;29.90;;;11.27;;
35646;SDS011;28680;45.642;13.756;2022-10-23T16:12:26;23.05;;;10.73;;
35646;SDS011;28680;45.642;13.756;2022-10-23T16:14:52;19.67;;;10.90;;
35646;SDS011;28680;45.642;13.756;2022-10-23T16:17:18;22.02;;;10.68;;
35646;SDS011;28680;45.642;13.756;2022-10-23T16:19:44;24.70;;;11.13;;
35646;SDS011;28680;45.642;13.756;2022-10-23T16:25:09;22.45;;;10.68;;
35646;SDS011;28680;45.642;13.756;2022-10-23T16:27:35;21.63;;;10.40;;
35646;SDS011;28680;45.642;13.756;2022-10-23T16:30:01;25.15;;;10.68;;
35646;SDS011;28680;45.642;13.756;2022-10-23T16:32:30;19.67;;;10.45;;
35646;SDS011;28680;45.642;13.756;2022-10-23T16:34:55;27.35;;;10.63;;
35646;SDS011;28680;45.642;13.756;2022-10-23T16:37:21;23.60;;;10.27;;
35646;SDS011;28680;45.642;13.756;2022-10-23T16:39:47;23.48;;;11.27;;
35646;SDS011;28680;45.642;13.756;2022-10-23T16:42:13;21.88;;;10.10;;
35646;SDS011;28680;45.642;13.756;2022-10-23T16:44:39;19.05;;;10.32;;
35646;SDS011;28680;45.642;13.756;2022-10-23T16:47:04;21.85;;;10.77;;
35646;SDS011;28680;45.642;13.756;2022-10-23T16:49:30;21.63;;;10.40;;